Time;durP1;ratioP1;P1;durP2;ratioP2;P2;SDS_P1;SDS_P2;PMS_P1;PMS_P2;Temp;Humidity;BMP_temperature;BMP_pressure;BME280_temperature;BME280_humidity;BME280_pressure;Samples;Min_cycle;Max_cycle;Signal;HPM_P1;HPM_P2
2023/07/02 00:00:32;;;;;;;32.78;12.15;;;;;;;;;;5031467;28;25144;-70
2023/07/02 00:02:59;;;;;;;27.25;11.60;;;;;;;;;;5020551;28;25119;-70
2023/07/02 00:05:25;;;;;;;40.05;11.85;;;;;;;;;;5016984;28;25103;-72
2023/07/02 00:07:51;;;;;;;25.98;10.52;;;;;;;;;;5026316;28;25082;-71
2023/07/02 00:10:17;;;;;;;25.30;8.23;;;;;;;;;;5019688;28;25056;-72
2023/07/02 00:12:44;;;;;;;22.15;8.40;;;;;;;;;;5018208;28;25075;-71
2023/07/02 00:15:10;;;;;;;26.55;7.63;;;;;;;;;;5033643;28;25037;-73
2023/07/02 00:17:39;;;;;;;17.98;5.93;;;;;;;;;;5052681;28;25076;-72
2023/07/02 00:20:13;;;;;;;12.55;4.72;;;;;;;;;;5053395;28;25056;-70
2023/07/02 00:22:41;;;;;;;11.20;4.80;;;;;;;;;;5057222;28;25057;-72
2023/07/02 00:25:07;;;;;;;11.73;4.93;;;;;;;;;;5050034;28;25074;-69
2023/07/02 00:27:33;;;;;;;10.57;4.70;;;;;;;;;;5059002;28;25074;-73
2023/07/02 00:29:59;;;;;;;12.95;4.88;;;;;;;;;;5049113;28;25073;-72
2023/07/02 00:32:25;;;;;;;9.55;3.95;;;;;;;;;;5058386;28;25160;-73
2023/07/02 00:34:51;;;;;;;13.20;4.18;;;;;;;;;;5056923;28;25080;-73
2023/07/02 00:37:17;;;;;;;10.60;4.70;;;;;;;;;;5052193;28;25059;-71
2023/07/02 00:39:43;;;;;;;17.63;4.55;;;;;;;;;;5043478;28;25151;-71
2023/07/02 00:42:11;;;;;;;20.27;5.43;;;;;;;;;;5038411;28;25067;-72
2023/07/02 00:44:40;;;;;;;11.50;4.75;;;;;;;;;;5033874;28;25068;-74
2023/07/02 00:47:07;;;;;;;15.02;5.95;;;;;;;;;;5039086;28;25139;-73
2023/07/02 00:49:34;;;;;;;21.23;6.47;;;;;;;;;;5026529;28;25063;-72
2023/07/02 00:52:00;;;;;;;24.30;5.93;;;;;;;;;;5027377;28;25099;-71
2023/07/02 00:54:28;;;;;;;22.00;6.68;;;;;;;;;;5017624;28;25069;-73
2023/07/02 00:56:54;;;;;;;19.00;6.15;;;;;;;;;;5023134;28;25060;-72
2023/07/02 00:59:20;;;;;;;15.20;5.55;;;;;;;;;;5029533;28;25081;-73
2023/07/02 01:01:49;;;;;;;19.23;5.85;;;;;;;;;;5021539;28;25160;-73
2023/07/02 01:04:17;;;;;;;19.25;6.78;;;;;;;;;;5024421;28;25082;-73
2023/07/02 01:06:43;;;;;;;18.13;6.60;;;;;;;;;;5026439;28;25049;-73
2023/07/02 01:09:09;;;;;;;19.95;6.40;;;;;;;;;;5026243;28;25112;-72
2023/07/02 01:11:41;;;;;;;19.52;6.90;;;;;;;;;;5020653;28;25099;-73
2023/07/02 01:14:18;;;;;;;17.60;6.25;;;;;;;;;;5020146;28;25140;-71
2023/07/02 01:16:44;;;;;;;14.45;6.15;;;;;;;;;;5039740;28;25094;-72
2023/07/02 01:19:18;;;;;;;17.27;6.28;;;;;;;;;;5040986;28;25129;-74
2023/07/02 01:21:45;;;;;;;16.35;6.00;;;;;;;;;;5045879;28;25169;-72
2023/07/02 01:24:12;;;;;;;21.55;6.85;;;;;;;;;;5040909;28;25126;-72
2023/07/02 01:26:38;;;;;;;15.98;6.88;;;;;;;;;;5044120;28;25068;-73
2023/07/02 01:29:17;;;;;;;18.80;6.07;;;;;;;;;;5048814;28;25066;-74
2023/07/02 01:31:43;;;;;;;21.35;6.65;;;;;;;;;;5036459;28;25055;-72
2023/07/02 01:34:09;;;;;;;17.45;5.50;;;;;;;;;;5040668;28;25076;-73
2023/07/02 01:36:35;;;;;;;16.70;6.57;;;;;;;;;;5037957;28;25053;-74
2023/07/02 01:39:03;;;;;;;16.67;6.60;;;;;;;;;;5046563;28;25153;-73
2023/07/02 01:41:28;;;;;;;13.45;6.30;;;;;;;;;;5043203;28;25053;-73
2023/07/02 01:43:54;;;;;;;17.77;6.47;;;;;;;;;;5045811;28;25076;-73
2023/07/02 01:46:21;;;;;;;17.38;6.32;;;;;;;;;;5032177;28;25075;-73
2023/07/02 01:48:47;;;;;;;14.27;6.13;;;;;;;;;;5028317;28;25096;-71
2023/07/02 01:51:13;;;;;;;20.83;6.25;;;;;;;;;;5030387;28;25101;-72
2023/07/02 01:53:39;;;;;;;29.05;7.25;;;;;;;;;;5040892;28;25061;-73
2023/07/02 01:56:05;;;;;;;20.63;7.75;;;;;;;;;;5023315;28;25065;-72
2023/07/02 01:58:31;;;;;;;19.83;7.88;;;;;;;;;;5015274;28;25081;-72
2023/07/02 02:00:57;;;;;;;12.52;5.28;;;;;;;;;;5019555;28;25141;-72
2023/07/02 02:03:23;;;;;;;19.98;6.03;;;;;;;;;;5025428;28;25066;-72
2023/07/02 02:05:49;;;;;;;20.88;6.93;;;;;;;;;;5019098;28;25066;-73
2023/07/02 02:08:15;;;;;;;16.33;5.80;;;;;;;;;;5021131;28;25109;-70
2023/07/02 02:10:41;;;;;;;14.10;6.22;;;;;;;;;;5040116;28;25056;-71
2023/07/02 02:13:07;;;;;;;18.25;6.88;;;;;;;;;;5023415;28;25051;-70
2023/07/02 02:15:33;;;;;;;14.05;6.53;;;;;;;;;;5023180;28;25064;-73
2023/07/02 02:17:59;;;;;;;18.67;7.00;;;;;;;;;;5036770;28;25081;-74
2023/07/02 02:20:25;;;;;;;18.65;6.82;;;;;;;;;;5036961;28;25103;-74
2023/07/02 02:22:51;;;;;;;16.15;5.82;;;;;;;;;;5017718;28;25152;-72
2023/07/02 02:25:17;;;;;;;18.38;6.88;;;;;;;;;;5020486;28;25085;-72
2023/07/02 02:27:43;;;;;;;22.73;8.07;;;;;;;;;;5024320;28;25067;-73
2023/07/02 02:30:09;;;;;;;17.63;6.43;;;;;;;;;;5027738;28;25071;-71
2023/07/02 02:32:35;;;;;;;20.45;6.28;;;;;;;;;;5029529;28;25147;-72
2023/07/02 02:35:01;;;;;;;19.25;7.05;;;;;;;;;;5020234;28;25066;-73
2023/07/02 02:37:27;;;;;;;19.98;6.80;;;;;;;;;;5017045;28;25063;-72
2023/07/02 02:39:53;;;;;;;19.23;6.80;;;;;;;;;;5029150;28;25071;-70
2023/07/02 02:42:19;;;;;;;22.63;7.32;;;;;;;;;;5026921;28;25068;-72
2023/07/02 02:44:45;;;;;;;19.02;7.32;;;;;;;;;;5028789;28;25049;-72
2023/07/02 02:47:11;;;;;;;20.38;6.95;;;;;;;;;;5026625;28;25049;-72
2023/07/02 02:49:39;;;;;;;25.10;7.85;;;;;;;;;;5011045;28;25072;-71
2023/07/02 02:52:05;;;;;;;22.52;8.07;;;;;;;;;;5025872;28;25051;-72
2023/07/02 02:54:31;;;;;;;28.00;7.63;;;;;;;;;;5041943;28;25093;-74
2023/07/02 02:56:57;;;;;;;22.83;7.03;;;;;;;;;;5048397;28;25085;-70
2023/07/02 02:59:23;;;;;;;20.70;5.88;;;;;;;;;;5054689;28;25126;-73
2023/07/02 03:01:51;;;;;;;16.58;6.95;;;;;;;;;;5032846;28;25076;-73
2023/07/02 03:04:17;;;;;;;18.52;7.10;;;;;;;;;;5033669;28;25107;-72
2023/07/02 03:06:43;;;;;;;22.25;6.40;;;;;;;;;;5026382;28;25084;-73
2023/07/02 03:09:10;;;;;;;22.70;7.05;;;;;;;;;;5031924;28;25118;-73
2023/07/02 03:11:37;;;;;;;22.48;7.18;;;;;;;;;;5016441;28;25056;-72
2023/07/02 03:14:03;;;;;;;17.77;6.80;;;;;;;;;;5023194;28;25123;-73
2023/07/02 03:16:29;;;;;;;23.80;6.90;;;;;;;;;;5019880;28;25064;-71
2023/07/02 03:18:55;;;;;;;21.17;6.72;;;;;;;;;;5019741;28;25086;-72
2023/07/02 03:21:21;;;;;;;23.92;6.72;;;;;;;;;;5037621;28;25060;-72
2023/07/02 03:23:48;;;;;;;23.45;7.35;;;;;;;;;;5034851;28;25056;-72
2023/07/02 03:26:14;;;;;;;20.85;6.70;;;;;;;;;;5023462;28;25071;-73
2023/07/02 03:28:40;;;;;;;26.50;7.25;;;;;;;;;;5055579;28;25062;-73
2023/07/02 03:31:06;;;;;;;17.42;7.18;;;;;;;;;;5058299;28;25117;-72
2023/07/02 03:33:32;;;;;;;22.75;7.28;;;;;;;;;;5034193;28;25073;-72
2023/07/02 03:35:58;;;;;;;24.05;7.07;;;;;;;;;;5022665;28;25063;-73
2023/07/02 03:38:24;;;;;;;17.63;6.38;;;;;;;;;;5022003;28;25082;-72
2023/07/02 03:40:50;;;;;;;23.35;8.02;;;;;;;;;;5025880;28;25061;-71
2023/07/02 03:43:16;;;;;;;19.40;6.45;;;;;;;;;;5028980;28;24969;-72
2023/07/02 03:45:42;;;;;;;19.67;7.53;;;;;;;;;;5026390;28;25058;-72
2023/07/02 03:48:08;;;;;;;22.48;8.48;;;;;;;;;;5026492;28;25058;-72
2023/07/02 03:50:34;;;;;;;18.65;6.75;;;;;;;;;;5027559;28;25059;-72
2023/07/02 03:53:00;;;;;;;23.17;7.50;;;;;;;;;;5019539;28;25143;-72
2023/07/02 03:55:27;;;;;;;15.57;6.75;;;;;;;;;;5025304;28;25084;-73
2023/07/02 03:57:53;;;;;;;26.13;7.03;;;;;;;;;;5034367;28;25066;-71
2023/07/02 04:00:19;;;;;;;18.65;7.28;;;;;;;;;;5040744;28;25058;-72
2023/07/02 04:02:46;;;;;;;21.50;6.43;;;;;;;;;;5021270;28;25127;-72
2023/07/02 04:05:12;;;;;;;23.27;7.20;;;;;;;;;;5021092;28;25067;-71
2023/07/02 04:07:38;;;;;;;29.90;7.95;;;;;;;;;;5027232;28;25155;-72
2023/07/02 04:10:05;;;;;;;24.95;7.65;;;;;;;;;;5020743;28;25083;-73
2023/07/02 04:12:31;;;;;;;24.80;7.20;;;;;;;;;;5013396;28;25094;-73
2023/07/02 04:14:57;;;;;;;21.17;6.88;;;;;;;;;;5017007;28;25081;-71
2023/07/02 04:17:23;;;;;;;24.60;7.43;;;;;;;;;;5019843;28;25057;-72
2023/07/02 04:19:49;;;;;;;23.33;7.15;;;;;;;;;;5016228;28;25079;-71
2023/07/02 04:22:15;;;;;;;20.90;6.15;;;;;;;;;;5044690;28;25082;-71
2023/07/02 04:24:41;;;;;;;21.05;7.05;;;;;;;;;;5045189;28;25076;-71
2023/07/02 04:27:07;;;;;;;26.23;7.07;;;;;;;;;;5034167;28;25058;-71
2023/07/02 04:29:33;;;;;;;20.85;6.95;;;;;;;;;;5040956;28;25118;-72
2023/07/02 04:31:59;;;;;;;22.73;7.28;;;;;;;;;;5036766;28;25069;-71
2023/07/02 04:34:25;;;;;;;24.92;7.55;;;;;;;;;;5027199;28;25074;-72
2023/07/02 04:36:51;;;;;;;26.58;7.45;;;;;;;;;;5028901;28;25099;-71
2023/07/02 04:39:17;;;;;;;16.35;6.38;;;;;;;;;;5034623;28;25158;-71
2023/07/02 04:41:43;;;;;;;22.05;6.68;;;;;;;;;;5026081;28;24903;-71
2023/07/02 04:44:09;;;;;;;19.58;6.47;;;;;;;;;;5028151;28;25126;-71
2023/07/02 04:46:35;;;;;;;27.58;8.50;;;;;;;;;;5032680;28;25072;-72
2023/07/02 04:49:01;;;;;;;21.38;7.05;;;;;;;;;;5034290;28;25087;-73
2023/07/02 04:51:27;;;;;;;21.17;6.90;;;;;;;;;;5041943;28;25072;-72
2023/07/02 04:53:53;;;;;;;20.25;6.93;;;;;;;;;;5027729;28;25138;-72
2023/07/02 04:56:19;;;;;;;16.58;6.35;;;;;;;;;;5040308;28;25141;-74
2023/07/02 04:58:45;;;;;;;18.45;6.13;;;;;;;;;;5030306;28;25084;-73
2023/07/02 05:01:11;;;;;;;19.35;6.85;;;;;;;;;;5034181;28;25080;-71
2023/07/02 05:03:38;;;;;;;17.33;6.85;;;;;;;;;;5028985;28;25062;-72
2023/07/02 05:06:04;;;;;;;21.80;5.97;;;;;;;;;;5024844;28;25134;-74
2023/07/02 05:08:30;;;;;;;23.23;8.07;;;;;;;;;;5026907;28;25068;-73
2023/07/02 05:10:56;;;;;;;18.25;6.22;;;;;;;;;;5035173;28;25077;-71
2023/07/02 05:13:22;;;;;;;18.35;7.47;;;;;;;;;;5040779;28;25058;-72
2023/07/02 05:15:49;;;;;;;22.77;6.32;;;;;;;;;;5043154;28;25072;-70
2023/07/02 05:18:14;;;;;;;16.20;5.85;;;;;;;;;;5055671;28;25123;-72
2023/07/02 05:20:40;;;;;;;17.58;6.00;;;;;;;;;;5038079;28;25152;-72
2023/07/02 05:23:06;;;;;;;23.80;6.38;;;;;;;;;;5038281;28;25075;-72
2023/07/02 05:25:33;;;;;;;15.68;6.85;;;;;;;;;;5031949;28;25155;-71
2023/07/02 05:27:59;;;;;;;21.27;6.30;;;;;;;;;;5017750;28;25117;-72
2023/07/02 05:30:25;;;;;;;18.88;5.57;;;;;;;;;;5028655;28;25074;-72
2023/07/02 05:32:51;;;;;;;16.35;5.65;;;;;;;;;;5018406;28;25091;-74
2023/07/02 05:35:17;;;;;;;14.48;5.55;;;;;;;;;;5020745;28;25062;-72
2023/07/02 05:37:45;;;;;;;16.80;5.28;;;;;;;;;;5013558;28;25155;-74
2023/07/02 05:40:11;;;;;;;20.13;5.53;;;;;;;;;;5021155;28;25069;-75
2023/07/02 05:42:38;;;;;;;15.07;5.05;;;;;;;;;;5025309;28;25045;-73
2023/07/02 05:45:04;;;;;;;20.55;5.95;;;;;;;;;;5024221;28;25153;-74
2023/07/02 05:47:30;;;;;;;14.20;5.25;;;;;;;;;;5022338;28;25119;-74
2023/07/02 05:49:56;;;;;;;12.48;5.38;;;;;;;;;;5017079;28;25176;-72
2023/07/02 05:52:22;;;;;;;20.70;5.40;;;;;;;;;;5019646;28;25092;-72
2023/07/02 05:54:48;;;;;;;15.95;5.70;;;;;;;;;;5023257;28;25058;-71
2023/07/02 05:57:14;;;;;;;15.45;6.10;;;;;;;;;;5010681;28;25068;-73
2023/07/02 05:59:41;;;;;;;16.83;5.88;;;;;;;;;;5019613;28;25125;-75
2023/07/02 06:02:07;;;;;;;19.65;5.53;;;;;;;;;;5022537;28;24882;-74
2023/07/02 06:04:33;;;;;;;19.38;6.35;;;;;;;;;;5012454;28;25073;-72
2023/07/02 06:06:59;;;;;;;16.67;5.65;;;;;;;;;;5020980;28;25068;-72
2023/07/02 06:09:25;;;;;;;17.63;5.63;;;;;;;;;;5024274;28;25062;-73
2023/07/02 06:11:51;;;;;;;20.30;6.15;;;;;;;;;;5024402;28;25087;-73
2023/07/02 06:14:18;;;;;;;15.68;5.63;;;;;;;;;;5023031;28;25053;-73
2023/07/02 06:16:44;;;;;;;12.40;5.13;;;;;;;;;;5022371;28;25154;-72
2023/07/02 06:19:10;;;;;;;22.23;5.60;;;;;;;;;;5020243;28;24994;-72
2023/07/02 06:21:36;;;;;;;15.60;5.82;;;;;;;;;;5014594;28;25143;-72
2023/07/02 06:24:03;;;;;;;15.50;5.72;;;;;;;;;;5023865;28;25097;-71
2023/07/02 06:26:29;;;;;;;24.13;6.63;;;;;;;;;;5025515;28;25168;-74
2023/07/02 06:28:56;;;;;;;16.63;5.20;;;;;;;;;;5022762;28;25079;-72
2023/07/02 06:31:22;;;;;;;9.98;4.75;;;;;;;;;;5025852;28;25069;-72
2023/07/02 06:33:48;;;;;;;16.10;5.32;;;;;;;;;;5022531;28;25063;-72
2023/07/02 06:36:14;;;;;;;14.50;4.93;;;;;;;;;;5035741;28;25070;-71
2023/07/02 06:38:40;;;;;;;21.00;5.20;;;;;;;;;;5026553;28;25054;-71
2023/07/02 06:41:06;;;;;;;16.15;4.95;;;;;;;;;;5024349;28;25060;-72
2023/07/02 06:43:32;;;;;;;15.90;5.65;;;;;;;;;;5018293;28;25107;-72
2023/07/02 06:45:58;;;;;;;21.02;5.63;;;;;;;;;;5019621;28;25072;-72
2023/07/02 06:48:24;;;;;;;15.65;4.68;;;;;;;;;;5020098;28;25063;-72
2023/07/02 06:50:50;;;;;;;13.18;5.13;;;;;;;;;;5022767;28;25052;-73
2023/07/02 06:53:16;;;;;;;15.13;5.97;;;;;;;;;;5022888;28;25104;-73
2023/07/02 06:55:42;;;;;;;19.02;5.53;;;;;;;;;;5019329;28;25077;-75
2023/07/02 06:58:09;;;;;;;16.98;5.43;;;;;;;;;;5022763;28;25171;-73
2023/07/02 07:00:35;;;;;;;19.85;4.93;;;;;;;;;;5019750;28;25061;-72
2023/07/02 07:03:02;;;;;;;17.83;5.68;;;;;;;;;;5022802;28;25047;-72
2023/07/02 07:05:28;;;;;;;17.10;5.50;;;;;;;;;;5031500;28;25063;-73
2023/07/02 07:07:54;;;;;;;15.68;5.05;;;;;;;;;;5025458;28;25210;-73
2023/07/02 07:10:20;;;;;;;17.67;5.60;;;;;;;;;;5022321;28;25080;-72
2023/07/02 07:12:46;;;;;;;12.90;4.43;;;;;;;;;;5022770;28;25072;-73
2023/07/02 07:15:12;;;;;;;14.82;5.63;;;;;;;;;;5023404;28;25052;-74
2023/07/02 07:17:38;;;;;;;11.15;4.28;;;;;;;;;;5021155;28;25066;-73
2023/07/02 07:20:05;;;;;;;15.55;5.55;;;;;;;;;;5031897;28;25097;-71
2023/07/02 07:22:31;;;;;;;16.10;4.80;;;;;;;;;;5051503;28;25077;-72
2023/07/02 07:24:57;;;;;;;11.65;4.32;;;;;;;;;;5055265;28;25130;-71
2023/07/02 07:27:23;;;;;;;14.48;4.53;;;;;;;;;;5037212;28;25061;-72
2023/07/02 07:29:49;;;;;;;17.92;6.35;;;;;;;;;;5028813;28;25073;-71
2023/07/02 07:32:16;;;;;;;16.40;5.68;;;;;;;;;;5030947;28;25104;-72
2023/07/02 07:34:42;;;;;;;13.57;5.05;;;;;;;;;;5027279;28;25130;-74
2023/07/02 07:37:08;;;;;;;10.80;4.03;;;;;;;;;;5038939;28;25134;-72
2023/07/02 07:39:34;;;;;;;14.77;5.57;;;;;;;;;;5036337;28;25064;-73
2023/07/02 07:42:00;;;;;;;12.88;4.97;;;;;;;;;;5039550;28;25060;-71
2023/07/02 07:44:29;;;;;;;11.27;5.15;;;;;;;;;;5040080;28;25088;-72
2023/07/02 07:46:55;;;;;;;13.70;5.65;;;;;;;;;;5036668;28;25066;-71
2023/07/02 07:49:22;;;;;;;11.20;4.93;;;;;;;;;;5030495;28;25140;-74
2023/07/02 07:51:48;;;;;;;12.38;4.57;;;;;;;;;;5032792;28;25070;-73
2023/07/02 07:54:14;;;;;;;15.95;4.50;;;;;;;;;;5032038;28;25084;-75
2023/07/02 07:56:40;;;;;;;9.70;4.10;;;;;;;;;;5027440;28;25083;-73
2023/07/02 07:59:06;;;;;;;11.85;4.47;;;;;;;;;;5031732;28;25087;-76
2023/07/02 08:01:32;;;;;;;16.45;4.72;;;;;;;;;;5026003;28;25092;-76
2023/07/02 08:03:58;;;;;;;15.15;5.07;;;;;;;;;;5029805;28;25067;-72
2023/07/02 08:06:24;;;;;;;12.20;4.40;;;;;;;;;;5016411;28;25153;-72
2023/07/02 08:08:50;;;;;;;13.65;4.28;;;;;;;;;;5034369;28;25064;-72
2023/07/02 08:11:16;;;;;;;12.60;4.18;;;;;;;;;;5038050;28;25068;-73
2023/07/02 08:13:43;;;;;;;13.18;4.85;;;;;;;;;;5034381;28;25063;-72
2023/07/02 08:16:10;;;;;;;11.02;5.07;;;;;;;;;;5037629;28;25058;-72
2023/07/02 08:18:36;;;;;;;11.25;4.20;;;;;;;;;;5033351;28;25203;-72
2023/07/02 08:21:03;;;;;;;12.00;4.03;;;;;;;;;;5026950;28;25078;-74
2023/07/02 08:23:29;;;;;;;15.85;4.88;;;;;;;;;;5026746;28;25069;-73
2023/07/02 08:25:55;;;;;;;18.08;4.78;;;;;;;;;;5024453;28;25063;-73
2023/07/02 08:28:21;;;;;;;10.98;4.05;;;;;;;;;;5030731;28;25056;-72
2023/07/02 08:30:47;;;;;;;15.57;4.72;;;;;;;;;;5030916;28;25089;-73
2023/07/02 08:33:13;;;;;;;12.25;4.65;;;;;;;;;;5035112;28;25053;-75
2023/07/02 08:35:39;;;;;;;17.92;4.82;;;;;;;;;;5031482;28;25062;-72
2023/07/02 08:38:06;;;;;;;9.90;3.85;;;;;;;;;;5039173;28;25081;-72
2023/07/02 08:40:31;;;;;;;10.27;4.45;;;;;;;;;;5028814;28;25132;-74
2023/07/02 08:42:59;;;;;;;10.88;4.95;;;;;;;;;;5027797;28;25065;-73
2023/07/02 08:45:25;;;;;;;14.40;4.60;;;;;;;;;;5038828;28;25049;-75
2023/07/02 08:47:53;;;;;;;13.75;4.53;;;;;;;;;;5045818;28;25142;-74
2023/07/02 08:50:19;;;;;;;9.65;4.20;;;;;;;;;;5028725;28;25065;-76
2023/07/02 08:52:45;;;;;;;11.27;4.38;;;;;;;;;;5026859;28;25045;-73
2023/07/02 08:55:11;;;;;;;17.05;4.03;;;;;;;;;;5045502;28;25151;-72
2023/07/02 08:57:37;;;;;;;9.77;3.88;;;;;;;;;;5042848;28;25080;-76
2023/07/02 09:00:09;;;;;;;12.82;4.03;;;;;;;;;;5055996;28;25122;-75
2023/07/02 09:02:35;;;;;;;9.20;4.30;;;;;;;;;;5057378;28;25099;-74
2023/07/02 09:05:01;;;;;;;7.28;3.10;;;;;;;;;;5054445;28;25082;-73
2023/07/02 09:07:27;;;;;;;12.50;4.28;;;;;;;;;;5044006;28;25134;-73
2023/07/02 09:09:53;;;;;;;9.23;3.92;;;;;;;;;;5031467;28;25095;-72
2023/07/02 09:12:29;;;;;;;5.15;2.40;;;;;;;;;;5027479;28;25067;-73
2023/07/02 09:15:03;;;;;;;8.07;3.22;;;;;;;;;;5034226;28;25091;-75
2023/07/02 09:17:29;;;;;;;8.63;3.78;;;;;;;;;;5041323;28;25078;-73
2023/07/02 09:19:56;;;;;;;11.43;4.03;;;;;;;;;;5039378;28;25113;-73
2023/07/02 09:22:22;;;;;;;10.18;3.63;;;;;;;;;;5046906;28;25105;-76
2023/07/02 09:24:54;;;;;;;6.80;2.88;;;;;;;;;;5035777;28;25086;-72
2023/07/02 09:27:20;;;;;;;6.72;3.08;;;;;;;;;;5019132;28;25063;-73
2023/07/02 09:29:52;;;;;;;9.40;3.10;;;;;;;;;;5011989;28;25061;-71
2023/07/02 09:32:28;;;;;;;5.47;2.80;;;;;;;;;;5026127;28;25102;-70
2023/07/02 09:34:55;;;;;;;5.45;2.50;;;;;;;;;;5023075;28;25057;-73
2023/07/02 09:37:22;;;;;;;8.68;3.15;;;;;;;;;;5026663;28;25092;-74
2023/07/02 09:39:50;;;;;;;5.50;2.92;;;;;;;;;;5020149;28;25059;-73
2023/07/02 09:42:19;;;;;;;7.68;3.15;;;;;;;;;;5021201;28;25126;-74
2023/07/02 09:44:45;;;;;;;8.73;3.47;;;;;;;;;;5022387;28;25077;-72
2023/07/02 09:47:12;;;;;;;7.28;2.53;;;;;;;;;;5015449;28;25138;-76
2023/07/02 09:49:43;;;;;;;6.95;2.67;;;;;;;;;;5019951;28;25082;-72
2023/07/02 09:52:10;;;;;;;4.25;2.13;;;;;;;;;;5022409;28;25064;-72
2023/07/02 09:54:37;;;;;;;6.95;2.75;;;;;;;;;;5038157;28;25077;-72
2023/07/02 09:57:03;;;;;;;6.57;2.67;;;;;;;;;;5037878;28;25136;-75
2023/07/02 09:59:30;;;;;;;7.43;2.70;;;;;;;;;;5035312;28;25072;-72
2023/07/02 10:01:56;;;;;;;6.97;2.65;;;;;;;;;;5033093;28;25070;-72
2023/07/02 10:04:25;;;;;;;7.63;2.60;;;;;;;;;;5015665;28;25051;-72
2023/07/02 10:06:55;;;;;;;6.55;2.47;;;;;;;;;;5021448;28;25062;-72
2023/07/02 10:09:21;;;;;;;7.53;2.80;;;;;;;;;;5034068;28;25063;-72
2023/07/02 10:11:48;;;;;;;5.38;2.90;;;;;;;;;;5024569;28;25054;-70
2023/07/02 10:14:14;;;;;;;6.20;2.80;;;;;;;;;;5025780;28;25062;-74
2023/07/02 10:16:53;;;;;;;6.47;2.83;;;;;;;;;;5024835;28;25127;-72
2023/07/02 10:19:19;;;;;;;9.45;3.70;;;;;;;;;;5026154;28;25071;-73
2023/07/02 10:21:46;;;;;;;11.98;3.03;;;;;;;;;;5025223;28;25112;-73
2023/07/02 10:24:17;;;;;;;6.88;3.33;;;;;;;;;;5027870;28;25053;-75
2023/07/02 10:27:00;;;;;;;6.47;2.87;;;;;;;;;;5011232;28;25067;-74
2023/07/02 10:29:26;;;;;;;7.85;3.05;;;;;;;;;;5021894;28;25072;-72
2023/07/02 10:31:53;;;;;;;8.73;3.17;;;;;;;;;;5025821;28;25088;-73
2023/07/02 10:34:29;;;;;;;6.90;3.28;;;;;;;;;;5023925;28;25056;-73
2023/07/02 10:36:55;;;;;;;4.07;2.33;;;;;;;;;;5025315;28;25067;-73
2023/07/02 10:39:21;;;;;;;10.70;3.35;;;;;;;;;;5025450;28;25093;-75
2023/07/02 10:41:47;;;;;;;6.13;3.53;;;;;;;;;;5026636;28;25089;-73
2023/07/02 10:44:13;;;;;;;5.75;2.90;;;;;;;;;;5019623;28;25074;-74
2023/07/02 10:46:50;;;;;;;6.45;2.90;;;;;;;;;;5020203;28;25055;-74
2023/07/02 10:49:17;;;;;;;6.40;3.20;;;;;;;;;;5026259;28;25071;-72
2023/07/02 10:51:43;;;;;;;10.18;3.25;;;;;;;;;;5015605;28;25093;-70
2023/07/02 10:54:10;;;;;;;5.18;2.80;;;;;;;;;;5024342;28;25168;-72
2023/07/02 10:56:36;;;;;;;7.13;3.35;;;;;;;;;;5027031;28;25123;-74
2023/07/02 10:59:02;;;;;;;6.88;3.00;;;;;;;;;;5026315;28;25125;-75
2023/07/02 11:01:29;;;;;;;7.13;2.95;;;;;;;;;;5025080;28;25065;-73
2023/07/02 11:04:02;;;;;;;6.45;3.00;;;;;;;;;;5026732;28;25065;-72
2023/07/02 11:06:30;;;;;;;7.10;3.30;;;;;;;;;;5042555;28;25096;-72
2023/07/02 11:08:56;;;;;;;8.88;3.65;;;;;;;;;;5037503;28;25082;-72
2023/07/02 11:11:23;;;;;;;6.97;2.90;;;;;;;;;;5043049;28;25079;-72
2023/07/02 11:13:49;;;;;;;6.78;3.17;;;;;;;;;;5027044;28;25065;-73
2023/07/02 11:16:19;;;;;;;5.97;3.28;;;;;;;;;;5022219;28;25071;-73
2023/07/02 11:18:45;;;;;;;8.95;3.92;;;;;;;;;;5038769;28;25086;-74
2023/07/02 11:21:11;;;;;;;8.75;2.95;;;;;;;;;;5049813;28;25084;-73
2023/07/02 11:23:37;;;;;;;7.88;3.25;;;;;;;;;;5043401;28;25064;-73
2023/07/02 11:26:03;;;;;;;8.23;3.35;;;;;;;;;;5026514;28;25084;-75
2023/07/02 11:28:31;;;;;;;9.48;3.53;;;;;;;;;;5021262;28;25122;-73
2023/07/02 11:30:57;;;;;;;12.65;4.82;;;;;;;;;;5017174;28;25121;-70
2023/07/02 11:33:40;;;;;;;7.68;3.28;;;;;;;;;;5027820;28;25069;-71
2023/07/02 11:36:07;;;;;;;8.82;3.42;;;;;;;;;;5047527;28;25069;-73
2023/07/02 11:38:37;;;;;;;9.05;3.53;;;;;;;;;;5069651;28;25074;-73
2023/07/02 11:41:04;;;;;;;7.32;3.58;;;;;;;;;;5060720;28;25082;-73
2023/07/02 11:43:30;;;;;;;13.55;3.80;;;;;;;;;;5058965;28;25072;-74
2023/07/02 11:45:57;;;;;;;8.75;3.40;;;;;;;;;;5055363;28;25068;-72
2023/07/02 11:48:23;;;;;;;7.13;3.20;;;;;;;;;;5051636;28;25048;-74
2023/07/02 11:50:48;;;;;;;10.98;3.28;;;;;;;;;;5019962;28;25064;-75
2023/07/02 11:53:14;;;;;;;7.97;3.55;;;;;;;;;;5029771;28;25054;-74
2023/07/02 11:55:40;;;;;;;11.20;4.00;;;;;;;;;;5025096;28;25082;-73
2023/07/02 11:58:06;;;;;;;9.70;3.28;;;;;;;;;;5031939;28;25069;-74
2023/07/02 12:00:32;;;;;;;9.00;3.75;;;;;;;;;;5032310;28;25141;-73
2023/07/02 12:02:58;;;;;;;8.35;4.15;;;;;;;;;;5040559;28;25113;-76
2023/07/02 12:05:24;;;;;;;10.15;3.72;;;;;;;;;;5050703;28;25061;-72
2023/07/02 12:07:51;;;;;;;11.73;3.90;;;;;;;;;;5027284;28;25062;-72
2023/07/02 12:10:17;;;;;;;12.23;3.55;;;;;;;;;;5012166;28;25056;-77
2023/07/02 12:12:43;;;;;;;6.15;3.40;;;;;;;;;;5027710;28;25125;-72
2023/07/02 12:15:09;;;;;;;8.25;3.25;;;;;;;;;;5039767;28;25129;-70
2023/07/02 12:17:35;;;;;;;14.40;3.53;;;;;;;;;;5027563;28;25135;-71
2023/07/02 12:20:01;;;;;;;9.85;3.65;;;;;;;;;;5032873;28;25078;-72
2023/07/02 12:22:27;;;;;;;13.73;3.92;;;;;;;;;;5034178;28;25101;-76
2023/07/02 12:24:56;;;;;;;10.05;4.00;;;;;;;;;;5024979;28;25122;-74
2023/07/02 12:27:22;;;;;;;9.70;3.75;;;;;;;;;;5032264;28;25052;-73
2023/07/02 12:29:48;;;;;;;11.02;4.40;;;;;;;;;;5047951;28;25069;-71
2023/07/02 12:32:14;;;;;;;10.40;4.32;;;;;;;;;;5053166;28;25155;-72
2023/07/02 12:34:40;;;;;;;9.07;3.38;;;;;;;;;;5038854;28;25071;-72
2023/07/02 12:37:06;;;;;;;10.20;3.72;;;;;;;;;;5040620;28;25097;-74
2023/07/02 12:39:32;;;;;;;8.50;3.45;;;;;;;;;;5045345;28;25062;-71
2023/07/02 12:41:58;;;;;;;11.40;3.92;;;;;;;;;;5047064;28;25077;-72
2023/07/02 12:44:24;;;;;;;11.38;4.13;;;;;;;;;;5041117;28;25085;-77
2023/07/02 12:46:50;;;;;;;9.43;3.63;;;;;;;;;;5025314;28;25077;-71
2023/07/02 12:49:16;;;;;;;9.70;4.00;;;;;;;;;;5017661;28;25085;-74
2023/07/02 12:51:42;;;;;;;9.45;3.42;;;;;;;;;;5018756;28;25125;-73
2023/07/02 12:54:08;;;;;;;9.82;3.60;;;;;;;;;;5022811;28;25087;-72
2023/07/02 12:56:34;;;;;;;11.02;3.83;;;;;;;;;;5023880;28;25083;-72
2023/07/02 12:59:02;;;;;;;10.15;3.72;;;;;;;;;;5020821;28;25051;-74
2023/07/02 13:01:28;;;;;;;12.18;4.32;;;;;;;;;;5012760;28;25065;-72
2023/07/02 13:03:54;;;;;;;9.05;3.67;;;;;;;;;;5017462;28;25043;-70
2023/07/02 13:06:20;;;;;;;11.60;4.07;;;;;;;;;;5026454;28;25062;-74
2023/07/02 13:08:46;;;;;;;13.10;3.72;;;;;;;;;;5021958;28;25120;-72
2023/07/02 13:11:12;;;;;;;8.93;3.78;;;;;;;;;;5036981;28;25105;-75
2023/07/02 13:13:38;;;;;;;15.52;3.97;;;;;;;;;;5023886;28;25091;-73
2023/07/02 13:16:04;;;;;;;8.05;3.85;;;;;;;;;;5015510;28;25111;-73
2023/07/02 13:18:30;;;;;;;7.65;3.45;;;;;;;;;;5023887;28;25070;-72
2023/07/02 13:20:56;;;;;;;11.52;4.43;;;;;;;;;;5039383;28;25059;-72
2023/07/02 13:23:22;;;;;;;11.20;4.10;;;;;;;;;;5026033;28;25066;-74
2023/07/02 13:25:48;;;;;;;12.75;4.68;;;;;;;;;;5023702;28;25062;-72
2023/07/02 13:28:14;;;;;;;10.82;3.97;;;;;;;;;;5025283;28;25051;-73
2023/07/02 13:30:40;;;;;;;7.93;3.88;;;;;;;;;;5023510;28;25080;-72
2023/07/02 13:33:05;;;;;;;10.32;4.25;;;;;;;;;;5017655;28;25058;-70
2023/07/02 13:35:31;;;;;;;7.75;3.13;;;;;;;;;;5022431;28;25085;-73
2023/07/02 13:37:59;;;;;;;9.05;4.15;;;;;;;;;;5017091;28;25110;-71
2023/07/02 13:40:25;;;;;;;8.70;3.17;;;;;;;;;;5014931;28;25102;-72
2023/07/02 13:42:51;;;;;;;9.50;3.05;;;;;;;;;;5022387;28;25129;-73
2023/07/02 13:45:17;;;;;;;7.30;3.65;;;;;;;;;;5024078;28;25056;-73
2023/07/02 13:47:43;;;;;;;8.20;3.47;;;;;;;;;;5040744;28;25090;-73
2023/07/02 13:50:09;;;;;;;6.68;3.05;;;;;;;;;;5027454;28;25079;-71
2023/07/02 13:52:35;;;;;;;8.93;3.80;;;;;;;;;;5025945;28;25090;-72
2023/07/02 13:55:01;;;;;;;6.93;3.00;;;;;;;;;;5017607;28;25092;-74
2023/07/02 13:57:27;;;;;;;8.77;3.13;;;;;;;;;;5024407;28;25097;-75
2023/07/02 13:59:53;;;;;;;8.27;3.65;;;;;;;;;;5024755;28;25083;-74
2023/07/02 14:02:19;;;;;;;6.50;3.45;;;;;;;;;;5025307;28;25072;-73
2023/07/02 14:04:45;;;;;;;8.80;3.75;;;;;;;;;;5019299;28;25080;-74
2023/07/02 14:07:12;;;;;;;7.68;3.50;;;;;;;;;;5030022;28;25060;-73
2023/07/02 14:09:38;;;;;;;9.10;3.53;;;;;;;;;;5041173;28;25071;-73
2023/07/02 14:12:04;;;;;;;7.20;3.35;;;;;;;;;;5036801;28;25088;-71
2023/07/02 14:14:30;;;;;;;6.97;3.40;;;;;;;;;;5035186;28;25092;-73
2023/07/02 14:16:56;;;;;;;7.10;3.00;;;;;;;;;;5061852;28;25060;-74
2023/07/02 14:19:22;;;;;;;7.63;3.42;;;;;;;;;;5069001;28;25073;-74
2023/07/02 14:21:48;;;;;;;13.52;4.05;;;;;;;;;;5069348;28;25069;-73
2023/07/02 14:24:15;;;;;;;12.05;3.42;;;;;;;;;;5057711;28;25079;-71
2023/07/02 14:26:41;;;;;;;11.02;3.45;;;;;;;;;;5049369;28;25076;-72
2023/07/02 14:29:06;;;;;;;6.72;2.88;;;;;;;;;;5052429;28;25062;-71